Time;durP1;ratioP1;P1;durP2;ratioP2;P2;SDS_P1;SDS_P2;PMS_P1;PMS_P2;Temp;Humidity;BMP_temperature;BMP_pressure;BME280_temperature;BME280_humidity;BME280_pressure;Samples;Min_cycle;Max_cycle;Signal;HPM_P1;HPM_P2
2023/05/15 00:01:29;;;;;;;3.72;3.20;;;10.90;99.90;;;;;;4978390;28;20046;-74
2023/05/15 00:03:55;;;;;;;2.97;2.70;;;10.90;99.90;;;;;;4979354;28;20415;-75
2023/05/15 00:06:21;;;;;;;3.22;2.92;;;10.90;99.90;;;;;;4998893;28;20034;-73
2023/05/15 00:08:46;;;;;;;4.53;3.85;;;10.90;99.90;;;;;;4996467;28;20062;-73
2023/05/15 00:11:12;;;;;;;4.75;3.80;;;10.90;99.90;;;;;;4995917;28;20033;-74
2023/05/15 00:13:37;;;;;;;3.70;3.38;;;10.90;99.90;;;;;;4997389;28;20126;-73
2023/05/15 00:16:12;;;;;;;4.85;4.30;;;10.80;99.90;;;;;;4995911;28;20049;-73
2023/05/15 00:18:38;;;;;;;4.55;3.78;;;10.80;99.90;;;;;;4996931;28;20105;-73
2023/05/15 00:21:03;;;;;;;4.38;3.33;;;10.80;99.90;;;;;;4997454;28;20530;-74
2023/05/15 00:23:29;;;;;;;3.78;3.38;;;10.70;99.90;;;;;;4996071;28;20030;-72
2023/05/15 00:25:55;;;;;;;2.90;2.65;;;10.70;99.90;;;;;;5005715;28;20032;-72
2023/05/15 00:28:20;;;;;;;3.10;2.90;;;10.70;99.90;;;;;;4990896;28;20094;-73
2023/05/15 00:30:46;;;;;;;3.42;3.13;;;10.80;99.90;;;;;;4979527;28;20453;-73
2023/05/15 00:33:11;;;;;;;2.88;2.58;;;10.80;99.90;;;;;;4977043;28;20037;-73
2023/05/15 00:35:37;;;;;;;3.15;2.85;;;10.80;99.90;;;;;;4986794;28;20061;-73
2023/05/15 00:38:03;;;;;;;4.97;2.78;;;10.70;99.90;;;;;;5015536;28;20032;-74
2023/05/15 00:40:29;;;;;;;4.80;3.90;;;10.70;99.90;;;;;;5016463;28;20053;-74
2023/05/15 00:42:56;;;;;;;4.35;3.95;;;10.80;99.90;;;;;;5015481;28;20426;-73
2023/05/15 00:45:23;;;;;;;5.15;3.60;;;10.70;99.90;;;;;;4998548;28;20088;-74
2023/05/15 00:47:49;;;;;;;4.22;2.80;;;10.70;99.90;;;;;;4997122;28;20037;-74
2023/05/15 00:50:15;;;;;;;3.28;2.65;;;10.70;99.90;;;;;;4996480;28;20022;-73
2023/05/15 00:52:42;;;;;;;4.40;3.63;;;10.70;99.90;;;;;;4995126;28;20464;-74
2023/05/15 00:55:08;;;;;;;5.43;3.40;;;10.70;99.90;;;;;;4996004;28;20034;-74
2023/05/15 00:57:34;;;;;;;4.47;3.80;;;10.70;99.90;;;;;;5004196;28;20506;-73
2023/05/15 01:00:01;;;;;;;3.88;3.47;;;10.70;99.90;;;;;;4992415;28;20096;-74
2023/05/15 01:02:27;;;;;;;4.07;3.67;;;10.70;99.90;;;;;;4997099;28;20137;-74
2023/05/15 01:04:53;;;;;;;3.92;3.63;;;10.60;99.90;;;;;;5001673;28;20026;-74
2023/05/15 01:07:19;;;;;;;3.55;3.25;;;10.60;99.90;;;;;;5016740;28;20057;-73
2023/05/15 01:09:46;;;;;;;4.60;3.97;;;10.60;99.90;;;;;;5015782;28;20022;-73
2023/05/15 01:12:14;;;;;;;4.32;3.88;;;10.60;99.90;;;;;;5016037;28;20132;-73
2023/05/15 01:14:40;;;;;;;3.78;3.35;;;10.60;99.90;;;;;;5012303;28;20038;-72
2023/05/15 01:17:06;;;;;;;4.43;3.97;;;10.60;99.90;;;;;;4995905;28;20026;-73
2023/05/15 01:19:32;;;;;;;4.53;4.13;;;10.60;99.90;;;;;;4995808;28;20029;-73
2023/05/15 01:22:34;;;;;;;3.72;3.42;;;10.60;99.90;;;;;;4995700;28;20369;-72
2023/05/15 01:25:29;;;;;;;4.93;4.00;;;10.60;99.90;;;;;;4998234;28;20471;-73
2023/05/15 01:27:57;;;;;;;5.10;4.22;;;10.60;99.90;;;;;;4998779;28;20472;-74
2023/05/15 01:30:31;;;;;;;7.45;5.20;;;10.60;99.90;;;;;;4981789;28;20038;-74
2023/05/15 01:33:17;;;;;;;5.20;4.50;;;10.60;99.90;;;;;;4976289;28;20472;-74
2023/05/15 01:35:49;;;;;;;4.25;3.83;;;10.60;99.90;;;;;;4980896;28;20026;-74
2023/05/15 01:38:21;;;;;;;4.80;3.45;;;10.60;99.90;;;;;;5004532;28;20028;-73
2023/05/15 01:40:52;;;;;;;3.25;2.95;;;10.60;99.90;;;;;;5015523;28;20057;-74
2023/05/15 01:43:23;;;;;;;4.67;4.03;;;10.60;99.90;;;;;;5015225;28;20030;-73
2023/05/15 01:45:48;;;;;;;4.63;4.22;;;10.60;99.90;;;;;;5010779;28;20274;-74
2023/05/15 01:48:16;;;;;;;6.78;5.72;;;10.60;99.90;;;;;;4995385;28;20022;-74
2023/05/15 01:50:44;;;;;;;5.72;5.13;;;10.60;99.90;;;;;;4995195;28;20026;-73
2023/05/15 01:53:11;;;;;;;5.28;4.78;;;10.60;99.90;;;;;;4995750;28;20018;-72
2023/05/15 01:55:38;;;;;;;5.47;4.90;;;10.60;99.90;;;;;;4993289;28;20023;-74
2023/05/15 01:58:05;;;;;;;5.32;4.78;;;10.50;99.90;;;;;;4995377;28;20071;-74
2023/05/15 02:00:31;;;;;;;5.78;4.78;;;10.50;99.90;;;;;;4979774;28;20034;-72
2023/05/15 02:02:58;;;;;;;7.40;4.80;;;10.50;99.90;;;;;;4986619;28;20027;-74
2023/05/15 02:05:25;;;;;;;5.55;4.82;;;10.50;99.90;;;;;;4993919;28;20049;-74
2023/05/15 02:07:51;;;;;;;7.85;5.68;;;10.50;99.90;;;;;;5007544;28;20094;-73
2023/05/15 02:10:18;;;;;;;7.18;5.72;;;10.50;99.90;;;;;;5015457;28;20025;-73
2023/05/15 02:12:44;;;;;;;7.75;5.70;;;10.40;99.90;;;;;;5013958;28;20108;-73
2023/05/15 02:15:10;;;;;;;5.75;4.53;;;10.40;99.90;;;;;;5013006;28;20033;-73
2023/05/15 02:17:36;;;;;;;7.60;6.05;;;10.40;99.90;;;;;;5009038;28;20100;-73
2023/05/15 02:20:04;;;;;;;7.78;5.78;;;10.50;99.90;;;;;;5002610;28;20034;-73
2023/05/15 02:22:30;;;;;;;5.97;5.38;;;10.40;99.90;;;;;;4993896;28;20030;-73
2023/05/15 02:24:56;;;;;;;6.60;5.28;;;10.40;99.90;;;;;;4992344;28;20023;-74
2023/05/15 02:27:26;;;;;;;6.03;4.57;;;10.40;99.90;;;;;;4996557;28;20057;-73
2023/05/15 02:30:33;;;;;;;5.43;4.30;;;10.40;99.90;;;;;;4999459;28;20487;-73
2023/05/15 02:33:08;;;;;;;5.80;4.60;;;10.40;99.90;;;;;;4998567;28;20081;-73
2023/05/15 02:35:51;;;;;;;4.75;4.25;;;10.40;99.90;;;;;;4992283;28;20030;-73
2023/05/15 02:38:27;;;;;;;7.65;6.15;;;10.40;99.90;;;;;;4992941;28;20537;-73
2023/05/15 02:40:55;;;;;;;7.65;6.60;;;10.40;99.90;;;;;;4993300;28;20081;-73
2023/05/15 02:43:22;;;;;;;9.93;7.57;;;10.50;99.90;;;;;;4993998;28;20101;-74
2023/05/15 02:45:48;;;;;;;6.70;5.80;;;10.50;99.90;;;;;;4995702;28;20034;-74
2023/05/15 02:48:15;;;;;;;7.80;6.38;;;10.50;99.90;;;;;;4995093;28;20456;-73
2023/05/15 02:50:42;;;;;;;8.95;6.15;;;10.60;99.90;;;;;;4994709;28;20360;-73
2023/05/15 02:53:08;;;;;;;6.47;5.65;;;10.60;99.90;;;;;;4994937;28;20041;-74
2023/05/15 02:55:34;;;;;;;8.18;5.55;;;10.60;99.90;;;;;;4994358;28;20022;-73
2023/05/15 02:58:02;;;;;;;6.53;5.78;;;10.60;99.90;;;;;;4994975;28;20066;-73
2023/05/15 03:00:28;;;;;;;9.63;7.35;;;10.60;99.90;;;;;;4996196;28;20045;-73
2023/05/15 03:02:53;;;;;;;8.35;6.22;;;10.60;99.90;;;;;;4995328;28;20033;-74
2023/05/15 03:05:19;;;;;;;7.30;6.47;;;10.60;99.90;;;;;;4994248;28;20085;-74
2023/05/15 03:07:45;;;;;;;8.00;6.28;;;10.60;99.90;;;;;;4989393;28;20037;-74
2023/05/15 03:10:11;;;;;;;8.13;6.72;;;10.60;99.90;;;;;;4995408;28;20129;-74
2023/05/15 03:12:37;;;;;;;6.43;5.45;;;10.60;99.90;;;;;;4994159;28;20045;-74
2023/05/15 03:15:07;;;;;;;7.78;5.88;;;10.60;99.90;;;;;;4993206;28;20084;-74
2023/05/15 03:17:32;;;;;;;7.50;5.95;;;10.60;99.90;;;;;;4994150;28;20488;-74
2023/05/15 03:19:58;;;;;;;5.57;5.07;;;10.50;99.90;;;;;;4996131;28;20141;-73
2023/05/15 03:22:26;;;;;;;6.38;5.25;;;10.50;99.90;;;;;;4996351;28;20165;-74
2023/05/15 03:24:54;;;;;;;5.88;5.25;;;10.60;99.90;;;;;;4997405;28;20081;-73
2023/05/15 03:27:20;;;;;;;5.60;4.60;;;10.50;99.90;;;;;;4998864;28;20109;-73
2023/05/15 03:29:47;;;;;;;5.63;4.82;;;10.50;99.90;;;;;;4999077;28;20050;-73
2023/05/15 03:32:13;;;;;;;6.05;4.65;;;10.50;99.90;;;;;;4999303;28;20383;-73
2023/05/15 03:34:39;;;;;;;5.57;4.47;;;10.50;99.90;;;;;;4998597;28;20030;-74
2023/05/15 03:37:04;;;;;;;8.90;5.88;;;10.50;99.90;;;;;;4999093;28;20030;-75
2023/05/15 03:39:30;;;;;;;6.22;5.47;;;10.50;99.90;;;;;;5007842;28;20110;-73
2023/05/15 03:41:55;;;;;;;6.47;5.00;;;10.50;99.90;;;;;;4998324;28;20034;-74
2023/05/15 03:44:21;;;;;;;4.97;4.47;;;10.50;99.90;;;;;;4998096;28;20082;-73
2023/05/15 03:46:47;;;;;;;7.95;6.00;;;10.50;99.90;;;;;;4999787;28;20034;-73
2023/05/15 03:49:12;;;;;;;7.05;5.57;;;10.50;99.90;;;;;;5008558;28;20086;-72
2023/05/15 03:51:38;;;;;;;5.60;4.75;;;10.50;99.90;;;;;;5001605;28;20010;-73
2023/05/15 03:54:04;;;;;;;6.57;5.63;;;10.50;99.90;;;;;;5016710;28;20101;-73
2023/05/15 03:56:31;;;;;;;7.60;6.63;;;10.50;99.90;;;;;;5004672;28;20121;-73
2023/05/15 03:58:57;;;;;;;6.72;5.97;;;10.50;99.90;;;;;;5002722;28;20390;-73
2023/05/15 04:01:22;;;;;;;7.88;6.95;;;10.50;99.90;;;;;;5008733;28;20085;-72
2023/05/15 04:03:48;;;;;;;6.80;5.95;;;10.50;99.90;;;;;;4995428;28;20026;-74
2023/05/15 04:06:13;;;;;;;7.32;6.03;;;10.50;99.90;;;;;;4996093;28;20026;-73
2023/05/15 04:08:39;;;;;;;6.72;5.72;;;10.50;99.90;;;;;;4996106;28;20018;-74
2023/05/15 04:11:05;;;;;;;5.93;5.22;;;10.50;99.90;;;;;;4996743;28;20038;-74
2023/05/15 04:13:31;;;;;;;7.68;6.88;;;10.50;99.90;;;;;;4996707;28;20139;-74
2023/05/15 04:15:58;;;;;;;8.02;6.05;;;10.50;99.90;;;;;;4996376;28;20030;-75
2023/05/15 04:18:24;;;;;;;8.20;6.10;;;10.60;99.90;;;;;;4996743;28;20578;-74
2023/05/15 04:20:51;;;;;;;8.98;7.07;;;10.60;99.90;;;;;;4996666;28;20109;-73
2023/05/15 04:23:17;;;;;;;9.95;7.03;;;10.60;99.90;;;;;;4996159;28;20030;-73
2023/05/15 04:25:45;;;;;;;6.70;5.53;;;10.60;99.90;;;;;;4997302;28;20186;-73
2023/05/15 04:28:12;;;;;;;6.60;5.40;;;10.60;99.90;;;;;;4996695;28;20015;-73
2023/05/15 04:30:37;;;;;;;7.15;5.63;;;10.60;99.90;;;;;;4996115;28;20383;-73
2023/05/15 04:33:03;;;;;;;8.77;7.80;;;10.70;99.90;;;;;;4999971;28;20022;-73
2023/05/15 04:35:29;;;;;;;10.38;7.68;;;10.70;99.90;;;;;;5013239;28;20475;-73
2023/05/15 04:37:54;;;;;;;7.75;6.53;;;10.70;99.90;;;;;;5014107;28;20084;-73
2023/05/15 04:40:20;;;;;;;7.40;6.10;;;10.70;99.90;;;;;;4998379;28;20025;-73
2023/05/15 04:42:46;;;;;;;7.75;6.13;;;10.70;99.90;;;;;;4997927;28;20022;-73
2023/05/15 04:45:13;;;;;;;9.60;6.82;;;10.80;99.90;;;;;;5012990;28;20403;-72
2023/05/15 04:47:39;;;;;;;10.50;7.63;;;10.80;99.90;;;;;;5014324;28;20014;-74
2023/05/15 04:50:05;;;;;;;7.63;6.22;;;10.80;99.90;;;;;;5007471;28;20045;-73
2023/05/15 04:52:31;;;;;;;8.45;7.38;;;10.80;99.90;;;;;;4995743;28;20101;-73
2023/05/15 04:54:57;;;;;;;8.88;7.45;;;10.80;99.90;;;;;;5005202;28;20115;-73
2023/05/15 04:57:24;;;;;;;9.38;8.02;;;10.80;99.90;;;;;;5003510;28;20026;-73
2023/05/15 04:59:50;;;;;;;12.23;7.85;;;10.90;99.90;;;;;;5003668;28;20125;-73
2023/05/15 05:02:19;;;;;;;7.38;6.50;;;10.90;99.90;;;;;;4995783;28;20058;-72
2023/05/15 05:04:44;;;;;;;6.97;5.80;;;10.90;99.90;;;;;;4995773;28;20026;-73
2023/05/15 05:07:10;;;;;;;9.23;6.32;;;11.00;99.90;;;;;;4995271;28;20511;-73
2023/05/15 05:09:38;;;;;;;10.88;5.45;;;11.00;99.90;;;;;;4998602;28;20061;-73
2023/05/15 05:12:06;;;;;;;6.90;5.85;;;11.00;99.90;;;;;;4995053;28;20105;-74
2023/05/15 05:14:31;;;;;;;7.43;6.43;;;11.10;99.90;;;;;;5004121;28;20450;-72
2023/05/15 05:16:57;;;;;;;8.55;6.05;;;11.10;99.90;;;;;;5005039;28;20035;-73
2023/05/15 05:19:22;;;;;;;9.85;7.93;;;11.20;99.90;;;;;;4999681;28;20095;-71
2023/05/15 05:21:48;;;;;;;10.18;8.75;;;11.20;99.90;;;;;;5014882;28;20615;-72
2023/05/15 05:24:14;;;;;;;10.65;8.65;;;11.30;99.90;;;;;;5013988;28;20034;-74
2023/05/15 05:26:43;;;;;;;8.50;6.90;;;11.20;99.90;;;;;;5011951;28;20026;-73
2023/05/15 05:29:08;;;;;;;8.60;6.88;;;11.20;99.90;;;;;;5006251;28;20386;-72
2023/05/15 05:31:34;;;;;;;9.68;7.47;;;11.20;99.90;;;;;;5007877;28;20050;-74
2023/05/15 05:33:59;;;;;;;9.43;7.00;;;11.30;99.90;;;;;;4995589;28;20074;-73
2023/05/15 05:36:25;;;;;;;9.68;7.68;;;11.30;99.90;;;;;;4996358;28;20106;-73
2023/05/15 05:38:51;;;;;;;9.48;7.45;;;11.30;99.90;;;;;;4995787;28;20045;-73
2023/05/15 05:41:16;;;;;;;7.93;7.13;;;11.20;99.90;;;;;;4999667;28;20026;-73
2023/05/15 05:43:42;;;;;;;7.53;6.70;;;11.20;99.90;;;;;;5014620;28;20057;-72
2023/05/15 05:46:07;;;;;;;7.28;6.35;;;11.20;99.90;;;;;;4995692;28;20070;-73
2023/05/15 05:48:33;;;;;;;7.13;5.97;;;11.20;99.90;;;;;;5000326;28;20534;-73
2023/05/15 05:50:59;;;;;;;8.50;6.30;;;11.30;99.90;;;;;;5000990;28;20057;-73
2023/05/15 05:53:24;;;;;;;5.95;5.32;;;11.20;99.90;;;;;;5004316;28;20057;-73
2023/05/15 05:55:50;;;;;;;8.80;6.60;;;11.40;99.90;;;;;;5009612;28;20033;-73
2023/05/15 05:58:17;;;;;;;11.52;8.07;;;11.40;99.90;;;;;;4999703;28;20481;-73
2023/05/15 06:00:43;;;;;;;9.02;7.55;;;11.40;99.90;;;;;;4996564;28;20026;-73
2023/05/15 06:03:09;;;;;;;9.77;7.55;;;11.40;99.90;;;;;;5009514;28;20041;-73
2023/05/15 06:05:34;;;;;;;7.35;6.55;;;11.40;99.90;;;;;;4996848;28;20420;-73
2023/05/15 06:08:03;;;;;;;8.48;7.13;;;11.40;99.90;;;;;;5004122;28;20022;-73
2023/05/15 06:10:29;;;;;;;8.50;6.95;;;11.50;99.90;;;;;;5013362;28;20025;-72
2023/05/15 06:12:55;;;;;;;10.23;8.40;;;11.50;99.90;;;;;;5000249;28;20117;-73
2023/05/15 06:15:20;;;;;;;10.25;8.60;;;11.50;99.90;;;;;;5010140;28;20080;-73
2023/05/15 06:17:46;;;;;;;9.00;7.13;;;11.50;99.90;;;;;;5013613;28;20026;-73
2023/05/15 06:20:13;;;;;;;9.20;8.27;;;11.50;99.90;;;;;;4997557;28;20026;-74
2023/05/15 06:22:39;;;;;;;7.97;6.63;;;11.50;99.90;;;;;;4996285;28;20022;-73
2023/05/15 06:25:05;;;;;;;9.65;6.75;;;11.60;99.90;;;;;;5009367;28;20037;-72
2023/05/15 06:27:32;;;;;;;7.85;6.55;;;11.70;99.90;;;;;;5000757;28;20026;-72
2023/05/15 06:29:57;;;;;;;9.73;6.93;;;11.70;99.90;;;;;;4991456;28;20033;-72
2023/05/15 06:32:23;;;;;;;7.25;4.78;;;11.80;99.90;;;;;;4996437;28;20035;-73
2023/05/15 06:34:49;;;;;;;5.25;4.70;;;11.90;99.90;;;;;;4995787;28;20054;-73
2023/05/15 06:37:15;;;;;;;6.25;4.75;;;12.00;99.90;;;;;;4983952;28;20129;-74
2023/05/15 06:39:40;;;;;;;5.60;4.75;;;12.20;99.90;;;;;;5002897;28;20034;-74
2023/05/15 06:42:06;;;;;;;7.10;5.60;;;12.30;99.90;;;;;;5001238;28;20034;-72
2023/05/15 06:44:32;;;;;;;4.90;4.50;;;12.40;99.90;;;;;;4993974;28;20614;-73
2023/05/15 06:46:58;;;;;;;5.47;4.80;;;12.60;99.90;;;;;;5009331;28;20133;-71
2023/05/15 06:49:24;;;;;;;7.15;5.30;;;12.70;99.90;;;;;;5011883;28;20014;-72
2023/05/15 06:51:51;;;;;;;6.47;5.43;;;12.70;99.90;;;;;;5005030;28;20026;-73
2023/05/15 06:54:16;;;;;;;8.88;6.15;;;12.80;99.90;;;;;;5005486;28;20030;-73
2023/05/15 06:56:42;;;;;;;6.20;5.55;;;12.80;99.90;;;;;;5002033;28;20064;-74
2023/05/15 06:59:08;;;;;;;7.75;5.75;;;12.90;99.90;;;;;;4999614;28;20042;-74
2023/05/15 07:01:34;;;;;;;6.50;5.80;;;12.90;99.90;;;;;;5009432;28;20032;-73
2023/05/15 07:04:00;;;;;;;7.78;5.65;;;13.00;99.90;;;;;;5016559;28;20165;-72
2023/05/15 07:06:25;;;;;;;6.13;4.95;;;13.10;99.90;;;;;;5014733;28;20049;-73
2023/05/15 07:08:51;;;;;;;4.88;4.38;;;13.20;99.90;;;;;;5019115;28;20036;-74
2023/05/15 07:11:17;;;;;;;5.15;4.15;;;13.40;99.90;;;;;;5007835;28;20073;-73
2023/05/15 07:13:43;;;;;;;4.32;3.92;;;13.60;99.90;;;;;;4999049;28;20488;-72
2023/05/15 07:16:08;;;;;;;5.65;3.70;;;13.70;99.90;;;;;;5000180;28;20034;-73
2023/05/15 07:18:34;;;;;;;4.00;3.60;;;14.00;99.90;;;;;;5018257;28;20036;-73
2023/05/15 07:21:00;;;;;;;3.78;3.17;;;14.30;99.40;;;;;;5018285;28;20050;-73
2023/05/15 07:23:26;;;;;;;5.00;3.65;;;14.50;98.70;;;;;;4986745;28;20045;-72
2023/05/15 07:25:53;;;;;;;4.05;3.65;;;14.70;98.20;;;;;;4997887;28;20026;-72
2023/05/15 07:28:19;;;;;;;4.10;3.38;;;14.80;97.40;;;;;;4996377;28;20027;-74
2023/05/15 07:30:45;;;;;;;4.20;3.90;;;15.00;96.90;;;;;;4994702;28;20034;-74
2023/05/15 07:33:10;;;;;;;5.90;3.95;;;15.20;95.60;;;;;;5015070;28;20026;-74
2023/05/15 07:35:36;;;;;;;5.55;3.25;;;15.30;95.00;;;;;;5001157;28;20034;-73
2023/05/15 07:38:02;;;;;;;4.18;3.58;;;15.40;94.70;;;;;;5003618;28;20314;-72
2023/05/15 07:40:27;;;;;;;3.67;3.33;;;15.60;94.00;;;;;;4998237;28;20022;-72
2023/05/15 07:42:53;;;;;;;3.15;2.85;;;15.60;93.50;;;;;;5015146;28;20053;-73
2023/05/15 07:45:19;;;;;;;3.30;3.00;;;16.10;93.60;;;;;;5015450;28;20042;-71
2023/05/15 07:47:46;;;;;;;2.40;2.15;;;16.50;92.50;;;;;;5014120;28;20482;-74
2023/05/15 07:50:12;;;;;;;3.53;2.95;;;16.90;91.50;;;;;;5008740;28;20399;-74
2023/05/15 07:52:38;;;;;;;3.00;2.80;;;17.20;90.20;;;;;;5011457;28;20030;-73
2023/05/15 07:55:04;;;;;;;2.55;2.35;;;17.20;88.70;;;;;;5016206;28;20489;-73
2023/05/15 07:57:30;;;;;;;3.03;2.28;;;16.90;89.10;;;;;;5004598;28;20026;-73
2023/05/15 07:59:56;;;;;;;2.85;2.55;;;16.70;89.40;;;;;;4999301;28;20022;-72
2023/05/15 08:02:22;;;;;;;3.47;2.72;;;16.50;89.80;;;;;;4998769;28;20030;-74
2023/05/15 08:04:48;;;;;;;3.35;2.50;;;16.30;90.00;;;;;;5016275;28;20042;-72
2023/05/15 08:07:14;;;;;;;3.53;2.40;;;16.10;90.30;;;;;;5017381;28;20029;-73
2023/05/15 08:09:40;;;;;;;4.55;2.53;;;16.10;90.60;;;;;;5007980;28;20030;-72
2023/05/15 08:12:19;;;;;;;2.85;2.65;;;16.20;90.90;;;;;;5007996;28;20022;-72
2023/05/15 08:14:53;;;;;;;2.90;2.70;;;16.40;90.50;;;;;;4997234;28;20033;-72
2023/05/15 08:17:19;;;;;;;3.00;2.25;;;16.60;89.80;;;;;;5010041;28;20092;-72
2023/05/15 08:19:45;;;;;;;2.55;2.35;;;16.60;88.70;;;;;;5009148;28;20034;-73
2023/05/15 08:22:11;;;;;;;3.00;2.65;;;16.80;88.00;;;;;;4998809;28;20026;-73
2023/05/15 08:24:38;;;;;;;2.85;2.55;;;17.00;87.30;;;;;;5010468;28;20037;-74
2023/05/15 08:27:05;;;;;;;4.10;2.38;;;17.00;85.90;;;;;;5006859;28;20037;-74
2023/05/15 08:29:31;;;;;;;2.42;2.20;;;17.10;85.70;;;;;;4996688;28;20105;-73
2023/05/15 08:31:57;;;;;;;2.58;2.30;;;17.10;85.70;;;;;;4997555;28;20026;-73
2023/05/15 08:34:23;;;;;;;1.60;1.50;;;17.20;85.40;;;;;;5012280;28;20029;-71
2023/05/15 08:36:49;;;;;;;2.30;2.10;;;17.30;85.30;;;;;;5009514;28;20065;-73
2023/05/15 08:39:14;;;;;;;4.70;2.88;;;17.30;84.00;;;;;;5012908;28;20041;-73
2023/05/15 08:41:48;;;;;;;3.90;3.50;;;17.10;83.00;;;;;;5009893;28;20056;-72
2023/05/15 08:44:14;;;;;;;3.10;2.83;;;17.10;83.00;;;;;;5015561;28;20034;-72
2023/05/15 08:46:40;;;;;;;2.53;2.33;;;17.20;82.80;;;;;;5009387;28;20502;-72
2023/05/15 08:49:36;;;;;;;2.20;1.63;;;17.40;83.30;;;;;;5005844;28;20037;-73
2023/05/15 08:52:03;;;;;;;2.28;1.83;;;17.40;82.40;;;;;;4999456;28;20050;-73
2023/05/15 08:54:29;;;;;;;4.68;3.97;;;17.20;82.40;;;;;;5007885;28;20224;-73
2023/05/15 08:56:55;;;;;;;5.53;3.78;;;16.80;82.90;;;;;;5003226;28;20034;-73
2023/05/15 08:59:21;;;;;;;5.10;3.20;;;16.20;85.20;;;;;;5005905;28;20093;-72
2023/05/15 09:01:47;;;;;;;4.30;2.70;;;15.70;88.00;;;;;;5007574;28;20136;-72
2023/05/15 09:04:13;;;;;;;3.65;2.92;;;15.40;90.00;;;;;;5000586;28;20061;-72
2023/05/15 09:06:40;;;;;;;4.40;3.28;;;15.40;90.30;;;;;;4998758;28;20018;-73
2023/05/15 09:09:08;;;;;;;3.40;2.72;;;15.30;90.50;;;;;;5012653;28;20021;-73
2023/05/15 09:11:35;;;;;;;3.90;3.30;;;15.30;90.70;;;;;;5009618;28;20418;-72
2023/05/15 09:14:01;;;;;;;3.75;2.95;;;15.30;90.40;;;;;;5016083;28;20041;-71
2023/05/15 09:16:27;;;;;;;3.72;3.42;;;15.40;90.40;;;;;;5003919;28;20068;-74
2023/05/15 09:18:53;;;;;;;3.40;3.10;;;15.50;90.00;;;;;;5010365;28;20029;-75
2023/05/15 09:21:30;;;;;;;3.40;2.85;;;15.70;89.50;;;;;;5012353;28;20026;-72
2023/05/15 09:24:16;;;;;;;3.38;2.97;;;16.00;88.50;;;;;;5015017;28;20026;-74
2023/05/15 09:26:43;;;;;;;2.75;2.55;;;16.20;87.60;;;;;;5013079;28;20025;-73
2023/05/15 09:29:08;;;;;;;3.40;3.10;;;16.50;86.80;;;;;;4991980;28;20094;-73
2023/05/15 09:31:35;;;;;;;4.65;2.25;;;16.90;85.60;;;;;;4992677;28;20149;-74
2023/05/15 09:34:03;;;;;;;4.22;2.50;;;17.30;84.90;;;;;;5011464;28;20033;-72
2023/05/15 09:36:29;;;;;;;2.13;2.03;;;17.60;81.90;;;;;;4998014;28;20053;-75
2023/05/15 09:38:59;;;;;;;1.88;1.77;;;17.90;81.10;;;;;;4996601;28;20026;-73
2023/05/15 09:41:25;;;;;;;1.70;1.60;;;18.10;79.70;;;;;;4999201;28;20033;-72
2023/05/15 09:43:51;;;;;;;1.88;1.77;;;18.20;79.60;;;;;;5013563;28;20025;-73
2023/05/15 09:46:17;;;;;;;1.80;1.70;;;18.50;79.60;;;;;;5013456;28;20050;-73
2023/05/15 09:48:43;;;;;;;3.10;2.00;;;19.00;77.10;;;;;;4996988;28;20022;-73
2023/05/15 09:51:17;;;;;;;1.80;1.70;;;19.10;74.90;;;;;;5011528;28;20038;-74
2023/05/15 09:53:50;;;;;;;1.50;1.40;;;18.80;74.70;;;;;;5015187;28;20022;-73
2023/05/15 09:56:16;;;;;;;1.60;1.50;;;18.70;75.90;;;;;;5010743;28;20125;-72
2023/05/15 09:58:55;;;;;;;2.38;1.33;;;19.10;75.00;;;;;;4996111;28;20049;-72
2023/05/15 10:01:25;;;;;;;1.30;1.30;;;19.50;73.00;;;;;;4999048;28;20030;-73
2023/05/15 10:04:01;;;;;;;3.50;2.90;;;19.80;70.40;;;;;;5002908;28;20099;-72
2023/05/15 10:06:37;;;;;;;2.60;2.40;;;19.60;68.50;;;;;;5016948;28;20025;-73
2023/05/15 10:09:04;;;;;;;2.47;2.28;;;19.10;68.40;;;;;;5004042;28;20022;-72
2023/05/15 10:11:35;;;;;;;2.38;2.17;;;18.30;71.30;;;;;;5005849;28;20041;-73
2023/05/15 10:14:02;;;;;;;1.80;1.70;;;17.90;73.60;;;;;;5008834;28;20403;-72
2023/05/15 10:16:29;;;;;;;1.88;1.77;;;17.80;74.50;;;;;;4999768;28;20164;-71
2023/05/15 10:18:57;;;;;;;1.83;1.70;;;;;;;;;;4998555;28;20045;-74
2023/05/15 10:21:24;;;;;;;3.10;2.80;;;18.50;74.20;;;;;;5013337;28;20041;-72
2023/05/15 10:23:50;;;;;;;2.53;2.20;;;19.10;71.00;;;;;;5014351;28;20029;-74
2023/05/15 10:26:28;;;;;;;2.63;2.42;;;19.60;70.50;;;;;;5013443;28;20447;-73
2023/05/15 10:28:55;;;;;;;3.00;2.72;;;20.10;67.90;;;;;;5001180;28;20049;-73
2023/05/15 10:31:22;;;;;;;4.07;3.28;;;20.30;67.20;;;;;;4996417;28;20390;-73
2023/05/15 10:33:50;;;;;;;2.08;1.98;;;20.40;66.40;;;;;;5001281;28;20040;-73
2023/05/15 10:36:16;;;;;;;2.00;1.90;;;20.60;66.20;;;;;;5012990;28;20053;-74
2023/05/15 10:38:43;;;;;;;2.00;1.90;;;20.90;65.40;;;;;;5004027;28;20030;-74
2023/05/15 10:41:11;;;;;;;2.20;2.10;;;20.80;63.80;;;;;;5015275;28;20033;-74
2023/05/15 10:43:37;;;;;;;2.22;2.03;;;20.20;64.20;;;;;;5011025;28;20090;-73
2023/05/15 10:46:04;;;;;;;2.00;1.88;;;19.50;66.10;;;;;;4996238;28;20093;-74
2023/05/15 10:48:31;;;;;;;2.17;1.98;;;18.90;67.80;;;;;;5006971;28;20024;-74
2023/05/15 10:51:00;;;;;;;3.85;3.00;;;18.50;69.30;;;;;;5018078;28;20049;-73
2023/05/15 10:53:26;;;;;;;3.63;3.33;;;;;;;;;;4999202;28;20022;-72
2023/05/15 10:55:52;;;;;;;12.50;5.28;;;16.70;81.30;;;;;;5005775;28;20034;-74
2023/05/15 10:58:25;;;;;;;4.57;4.15;;;15.30;93.00;;;;;;4999208;28;20095;-74
2023/05/15 11:00:50;;;;;;;6.55;4.45;;;14.10;99.90;;;;;;5015133;28;20025;-73
2023/05/15 11:03:37;;;;;;;3.50;3.20;;;13.80;99.90;;;;;;4996168;28;20030;-74
2023/05/15 11:06:10;;;;;;;3.80;3.50;;;13.70;99.90;;;;;;5006127;28;20022;-74
2023/05/15 11:08:41;;;;;;;3.08;2.88;;;13.80;99.90;;;;;;4998046;28;20491;-72
2023/05/15 11:11:07;;;;;;;2.72;2.53;;;13.80;99.90;;;;;;5014345;28;20026;-73
2023/05/15 11:14:04;;;;;;;2.83;2.63;;;13.70;99.90;;;;;;5010247;28;20173;-74
2023/05/15 11:16:52;;;;;;;2.83;2.60;;;13.60;99.90;;;;;;5010727;28;20549;-73
2023/05/15 11:19:21;;;;;;;2.17;2.08;;;13.70;99.90;;;;;;5013818;28;20073;-74
2023/05/15 11:21:47;;;;;;;2.30;2.20;;;13.60;99.90;;;;;;5014743;28;20032;-73
2023/05/15 11:24:12;;;;;;;2.20;2.10;;;13.60;99.90;;;;;;5012389;28;20113;-73
2023/05/15 11:26:41;;;;;;;1.80;1.70;;;13.60;99.90;;;;;;5002726;28;20030;-73
2023/05/15 11:29:17;;;;;;;1.63;1.52;;;13.40;99.90;;;;;;4995349;28;20023;-74
2023/05/15 11:31:43;;;;;;;1.38;1.33;;;13.50;99.90;;;;;;4999897;28;20057;-74
2023/05/15 11:34:09;;;;;;;1.42;1.33;;;13.60;99.90;;;;;;5013823;28;20034;-74
2023/05/15 11:36:38;;;;;;;1.50;1.40;;;13.70;99.90;;;;;;5015509;28;20021;-73
2023/05/15 11:39:10;;;;;;;1.17;1.17;;;14.00;99.90;;;;;;5013305;28;20034;-74
2023/05/15 11:41:36;;;;;;;0.80;0.80;;;14.50;99.90;;;;;;5002921;28;20092;-74
2023/05/15 11:44:02;;;;;;;0.57;0.57;;;14.90;99.90;;;;;;4996153;28;20395;-73
2023/05/15 11:46:29;;;;;;;0.88;0.88;;;15.10;99.90;;;;;;5007273;28;20482;-73
2023/05/15 11:48:55;;;;;;;0.70;0.70;;;15.10;99.90;;;;;;5015161;28;20106;-73
2023/05/15 11:51:25;;;;;;;0.50;0.50;;;15.10;99.90;;;;;;5016869;28;20022;-73
2023/05/15 11:53:53;;;;;;;0.40;0.40;;;15.40;99.90;;;;;;5014096;28;20401;-74
2023/05/15 11:56:21;;;;;;;0.40;0.40;;;15.80;99.90;;;;;;5015613;28;20395;-73
2023/05/15 11:58:48;;;;;;;0.40;0.40;;;16.10;99.90;;;;;;5001906;28;20403;-75
2023/05/15 12:01:14;;;;;;;0.32;0.32;;;16.10;99.90;;;;;;5008119;28;20073;-73
2023/05/15 12:03:40;;;;;;;0.40;0.40;;;16.00;99.90;;;;;;5017073;28;20034;-73
2023/05/15 12:06:05;;;;;;;0.30;0.30;;;15.50;99.90;;;;;;5014481;28;20061;-74
2023/05/15 12:08:32;;;;;;;0.40;0.40;;;15.10;99.90;;;;;;4998840;28;20027;-72
2023/05/15 12:10:59;;;;;;;0.47;0.47;;;14.60;99.90;;;;;;5008938;28;20102;-74
2023/05/15 12:13:25;;;;;;;0.50;0.50;;;14.20;99.90;;;;;;4997374;28;20053;-73
2023/05/15 12:15:51;;;;;;;0.50;0.50;;;14.00;99.90;;;;;;4996524;28;20030;-74
2023/05/15 12:18:16;;;;;;;0.20;0.20;;;13.80;99.90;;;;;;5015662;28;20390;-73
2023/05/15 12:20:45;;;;;;;0.25;0.25;;;13.60;99.90;;;;;;5004716;28;20387;-73
2023/05/15 12:23:14;;;;;;;0.30;0.30;;;13.60;99.90;;;;;;5014471;28;20036;-73
2023/05/15 12:25:42;;;;;;;0.40;0.40;;;13.40;99.90;;;;;;5010139;28;20030;-73
2023/05/15 12:28:08;;;;;;;0.40;0.40;;;13.30;99.90;;;;;;4998700;28;20033;-73
2023/05/15 12:30:34;;;;;;;0.25;0.25;;;13.30;99.90;;;;;;4999490;28;20033;-74
2023/05/15 12:33:08;;;;;;;0.20;0.20;;;13.40;99.90;;;;;;4996897;28;20404;-73
2023/05/15 12:35:42;;;;;;;0.20;0.20;;;13.50;99.90;;;;;;4996933;28;20053;-73
2023/05/15 12:38:08;;;;;;;0.20;0.20;;;13.70;99.90;;;;;;5013819;28;20434;-74
2023/05/15 12:40:35;;;;;;;0.30;0.30;;;13.70;99.90;;;;;;5013800;28;20034;-74
2023/05/15 12:43:06;;;;;;;0.30;0.30;;;13.70;99.90;;;;;;5008641;28;20137;-73
2023/05/15 12:45:33;;;;;;;0.20;0.20;;;13.70;99.90;;;;;;5014404;28;20022;-73
2023/05/15 12:48:00;;;;;;;0.30;0.30;;;13.70;99.90;;;;;;5012542;28;20423;-74
2023/05/15 12:50:29;;;;;;;0.40;0.40;;;13.60;99.90;;;;;;5016125;28;20723;-73